CLMO2: North Canadian River

                                SHEF ID:       CLMO2     North Canadian River near Calume
STATION TYPE:
Regulating: Stage = 12.00, Flow = 1420

STAGE STAGE(2) RIV-FLOW WTR-TEMP DIS-OXY PH CONDUCT BAT-LOAD
ft ft cfs F mg/l su umho/cm volt
Ccp-Rev Ccp-Rev Ccp-Rev Ccp-Rev Ccp-Rev Ccp-Rev Ccp-Rev Ccp-Rev
(America/Chicago)
04/22 00:00 3.64 ---- 23 65.75 7.80 8.43 1351 12.50
04/22 01:00 3.64 ---- 23 65.32 7.71 8.40 1359 12.53
04/22 02:00 3.64 ---- 23 64.96 7.67 8.38 1368 12.51
04/22 03:00 3.64 ---- 23 64.65 7.64 8.35 1377 12.47
04/22 04:00 3.64 ---- 23 64.35 7.66 8.34 1385 12.40
04/22 05:00 3.64 ---- 23 64.13 7.67 8.32 1393 12.45
04/22 06:00 3.64 ---- 23 63.97 7.68 8.31 1398 12.37
04/22 07:00 3.64 ---- 23 63.82 7.70 8.30 1403 12.42
04/22 08:00 3.64 ---- 23 63.75 7.83 8.30 1409 12.37
04/22 09:00 3.64 ---- 23 63.90 8.26 8.31 1415 12.44
04/22 10:00 3.64 ---- 23 64.15 8.76 8.35 1419 12.40
04/22 11:00 3.64 ---- 23 64.69 9.44 8.40 1422 12.53
04/22 12:00 3.64 ---- 23 65.34 10.03 8.45 1424 12.49
04/22 13:00 3.64 ---- 23 65.82 10.35 8.49 1420 12.70
04/22 14:00 3.64 ---- 23 66.22 10.51 8.51 1425 12.61
04/22 15:00 3.63 ---- 22 66.49 10.53 8.52 1426 12.66
04/22 16:00 3.63 ---- 22 66.87 10.60 8.55 1429 12.58
04/22 17:00 3.63 ---- 22 67.50 10.72 8.57 1423 12.71
04/22 18:00 3.63 ---- 22 67.71 10.43 8.56 1426 12.49
04/22 19:00 3.63 ---- 22 67.53 9.74 8.55 1422 12.46
04/22 20:00 3.63 ---- 22 67.32 8.99 8.51 1424 12.34
04/22 21:00 3.62 ---- 22 67.12 8.39 8.48 1425 12.36
04/22 22:00 3.62 ---- 22 66.97 8.03 8.45 1427 12.30
04/22 23:00 3.62 ---- 22 66.88 7.78 8.42 1429 12.34
Data processed at Thu 23Apr2026 04:25 GMT

NOTICE: If you are parsing this page

Please convert to using our Data API. Starting early 2026 we will be migrating to: https://water.usace.army.mil with modern pages rendered in JavaScript. When this migration completes you will no longer be able to scrape this page! CWMSDataAPI (CDA)

Timeseries IDs (TSIDs)

TSIDs used from left to right in the data table
CALU.Stage.Inst.1Hour.0.Ccp-Rev
CALU.Stage-Alt.Inst.1Hour.0.Ccp-Rev
CALU.Flow.Inst.1Hour.0.Ccp-Rev
CALU.Temp-Water.Inst.1Hour.0.Ccp-Rev
CALU.Conc-DO.Inst.1Hour.0.Ccp-Rev
CALU.pH.Inst.1Hour.0.Ccp-Rev
CALU.Cond-Water.Inst.1Hour.0.Ccp-Rev
CALU.Volt-Battery Load.Inst.1Hour.0.Ccp-Rev

                            

All information presented herein is the property of the government of the United States of America and may be revised or deleted at any time without prior notice. Dissemination of this information without the expressed written consent of the Public Affairs Office, Tulsa District U.S. Army Corps of Engineers is strictly prohibited. These data are gathered electronically and, as presented, have NOT undergone any form of quality control. These data are NOT guaranteed to be valid or correct.